Arlington, Oregon
Current Conditions -  °F | °C
As of 2:53 AM on Friday 31 Oct 2014 (Local Time) from KHRI Reporting Station
Clear Clear  
Wind Chill: 11°   Ceiling: Unl
Heat Index: 11°   Visibility: 8mi
Dew Point:   Wind: 6mph
Humidity: 89%   Direction: 140°SE
Pressure: 29.79"   Gusts: NA
Location:  45.72°N, 120.2°W
Report Text: KHRI 310953Z AUTO 14005KT 8SM CLR 11/09 A2979 RMK AO2 SLP085 T01110094
Loading
Personal Weather Stations






























Interactive Weather Map
Tropical Storm Tracking
New forecast layout! Learn more

10-Day Weather Forecast

Advertisements
Track Severe Weather on mobile